Latest Weather Observations for Gayndah

IDQ60801

Issued at 1:32 pm EST Sunday 26 February 2017 (issued every 30 minutes, with the page automatically refreshed every 10 minutes)

About weather observations | Map of weather stations | Latest weather observations for QLD | Other Formats
Station Details ID: 039066 Name: GAYNDAH AIRPORT Lat: -25.62 Lon: 151.62 Height: 110.9 m
Data from the previous 72 hours. | See also: Recent months at Gayndah
Date/Time
EST
Temp
°C
App
Temp
°C
Dew
Point
°C
Rel
Hum
%
Delta-T
°C
Wind Press
QNH
hPa
Press
MSL
hPa
Rain since
9am
mm
Dir  Spd
km/h
Gust
km/h
Spd
kts
Gust
kts
26/01:00pm 31.8 29.6 12.1 30 11.7 ESE 15 24 8 13 1012.8 1012.2 0.0
26/12:30pm 33.1 32.2 13.7 31 11.8 E 11 22 6 12 1013.2 1012.6 0.0
26/12:00pm 32.0 29.9 14.6 34 10.7 ESE 19 30 10 16 1013.7 1013.1 0.0
26/11:30am 30.6 29.5 14.3 37 9.9 SE 13 20 7 11 1014.1 1013.5 0.0
26/11:00am 30.8 29.3 15.2 38 9.6 ESE 17 22 9 12 1014.6 1013.9 0.0
26/10:30am 29.8 29.3 15.9 43 8.6 E 13 22 7 12 1015.0 1014.3 0.0
26/10:00am 28.7 28.2 15.9 45 7.9 E 13 22 7 12 1015.3 1014.6 0.0
26/09:30am 28.2 26.8 16.5 49 7.3 E 19 28 10 15 1015.4 1014.7 0.0
26/09:00am 26.7 26.1 16.6 54 6.3 ESE 15 20 8 11 1015.4 1014.7 0.0
26/08:30am 26.1 25.1 16.6 55 5.9 SE 17 24 9 13 1015.3 1014.6 0.0
26/08:00am 25.5 26.1 16.9 59 5.3 SE 9 17 5 9 1015.4 1014.7 0.0
26/07:30am 23.6 24.3 16.1 62 4.6 SE 7 13 4 7 1015.3 1014.6 0.0
26/07:00am 23.5 24.4 16.1 63 4.5 SSE 6 11 3 6 1015.2 1014.5 0.0
26/06:30am 22.1 23.0 16.1 69 3.6 SSW 6 7 3 4 1015.2 1014.5 0.0
26/06:00am 20.3 21.0 15.7 75 2.7 SW 6 6 3 3 1014.7 1014.0 0.0
26/05:30am 20.5 21.1 15.9 75 2.8 SW 7 9 4 5 1014.6 1013.9 0.0
26/05:00am 21.1 21.9 15.9 72 3.1 SW 6 7 3 4 1014.3 1013.6 0.0
26/04:30am 21.6 23.8 16.6 73 3.1 CALM 0 0 0 0 1014.0 1013.4 0.0
26/04:00am 21.1 23.2 16.3 74 2.9 CALM 0 0 0 0 1013.6 1013.0 0.0
26/03:30am 20.4 22.6 16.4 78 2.4 CALM 0 2 0 1 1013.5 1012.9 0.0
26/03:00am 19.7 20.8 15.6 77 2.4 SSE 4 6 2 3 1013.4 1012.8 0.0
26/02:30am 20.6 22.7 16.2 76 2.7 CALM 0 4 0 2 1013.5 1012.9 0.0
26/02:00am 21.2 23.0 16.4 74 2.9 S 2 4 1 2 1013.4 1012.8 0.0
26/01:30am 22.4 23.4 16.4 69 3.7 E 6 6 3 3 1013.7 1013.1 0.0
26/01:00am 22.8 23.7 16.6 68 3.8 ENE 7 9 4 5 1014.0 1013.4 0.0
26/12:30am 23.3 24.3 16.8 67 4.0 E 7 11 4 6 1014.3 1013.6 0.0
26/12:00am 23.8 23.6 16.8 65 4.3 E 13 19 7 10 1014.5 1013.8 0.0
 
Date/Time
EST
Temp
°C
App
Temp
°C
Dew
Point
°C
Rel
Hum
%
Delta-T
°C
Wind Press
QNH
hPa
Press
MSL
hPa
Rain since
9am
mm
Dir  Spd
km/h
Gust
km/h
Spd
kts
Gust
kts
25/11:30pm 24.1 23.6 16.9 64 4.5 E 15 24 8 13 1014.6 1013.9 0.0
25/11:00pm 24.5 23.5 16.7 61 4.8 E 17 28 9 15 1014.7 1014.0 0.0
25/10:30pm 24.4 24.4 15.1 56 5.6 E 9 13 5 7 1015.0 1014.3 0.0
25/10:00pm 24.9 24.7 14.7 53 6.1 E 9 11 5 6 1015.0 1014.3 0.0
25/09:30pm 25.8 25.2 14.6 50 6.7 E 11 17 6 9 1014.9 1014.2 0.0
25/09:00pm 26.6 25.5 15.3 50 6.9 E 15 26 8 14 1014.7 1014.0 0.0
25/08:30pm 27.1 25.7 15.5 49 7.1 E 17 22 9 12 1014.3 1013.6 0.0
25/08:00pm 27.9 26.3 14.9 45 7.9 E 17 24 9 13 1013.7 1013.1 0.0
25/07:30pm 28.8 26.9 14.2 40 8.8 ENE 17 22 9 12 1013.0 1012.4 0.0
25/07:00pm 29.7 27.8 14.3 39 9.4 ENE 17 20 9 11 1012.1 1011.5 0.0
25/06:30pm 31.5 28.9 10.8 28 12.0 ENE 15 20 8 11 1011.5 1010.9 0.0
25/06:00pm 32.8 29.8 10.8 26 12.8 E 17 22 9 12 1011.0 1010.4 0.0
25/05:30pm 33.6 30.9 10.2 24 13.5 ENE 15 19 8 10 1010.7 1010.1 0.0
25/05:00pm 34.1 31.3 10.0 23 14.0 E 15 24 8 13 1010.6 1010.0 0.0
25/04:30pm 34.5 31.8 10.4 23 14.1 ENE 15 24 8 13 1010.5 1009.9 0.0
25/04:00pm 35.0 32.8 9.4 21 14.7 ENE 11 20 6 11 1010.6 1010.0 0.0
25/03:30pm 35.2 31.5 9.6 21 14.8 E 19 28 10 15 1010.6 1010.0 0.0
25/03:00pm 34.9 33.1 9.3 21 14.7 S 9 20 5 11 1011.0 1010.4 0.0
25/02:30pm 34.1 33.0 10.0 23 13.9 S 6 20 3 11 1011.3 1010.7 0.0
25/02:00pm 34.5 33.0 10.4 23 14.1 NNE 9 22 5 12 1011.9 1011.3 0.0
25/01:30pm 33.7 31.0 10.3 24 13.6 E 15 24 8 13 1012.4 1011.8 0.0
25/01:00pm 33.1 32.1 10.4 25 13.2 SE 6 17 3 9 1013.0 1012.4 0.0
25/12:30pm 32.5 30.2 10.5 26 12.7 NE 13 22 7 12 1013.6 1013.0 0.0
25/12:00pm 31.7 29.6 11.0 28 12.0 ESE 13 24 7 13 1014.0 1013.4 0.0
25/11:30am 31.5 30.4 11.8 30 11.6 E 9 19 5 10 1014.5 1013.8 0.0
25/11:00am 30.7 29.8 12.6 33 10.7 SSE 9 20 5 11 1015.0 1014.3 0.0
25/10:30am 30.1 28.7 13.4 36 10.0 E 13 22 7 12 1015.7 1015.0 0.0
25/10:00am 28.8 27.8 14.6 42 8.6 E 13 24 7 13 1016.1 1015.4 0.0
25/09:30am 28.1 26.9 15.1 45 7.9 ENE 15 26 8 14 1016.4 1015.7 0.0
25/09:00am 27.1 26.7 16.1 51 6.8 E 13 24 7 13 1016.5 1015.8 0.0
25/08:30am 26.4 25.3 16.3 53 6.2 E 17 24 9 13 1016.6 1015.9 0.0
25/08:00am 25.4 26.0 16.8 59 5.3 ESE 9 17 5 9 1016.7 1016.0 0.0
25/07:30am 23.7 25.0 17.0 66 4.1 SSE 6 9 3 5 1016.6 1015.9 0.0
25/07:00am 21.5 23.9 16.9 75 2.8 CALM 0 4 0 2 1016.4 1015.7 0.0
25/06:30am 19.3 21.1 16.5 84 1.7 S 2 4 1 2 1016.3 1015.6 0.0
25/06:00am 17.9 19.0 15.5 86 1.4 S 4 6 2 3 1016.0 1015.3 0.0
25/05:30am 18.1 19.8 16.1 88 1.2 S 2 4 1 2 1015.8 1015.1 0.0
25/05:00am 18.4 20.6 16.4 88 1.2 CALM 0 2 0 1 1015.6 1014.9 0.0
25/04:30am 18.9 21.0 16.3 85 1.6 CALM 0 0 0 0 1015.5 1014.8 0.0
25/04:00am 18.8 21.0 16.4 86 1.4 CALM 0 0 0 0 1015.4 1014.7 0.0
25/03:30am 19.5 21.5 16.0 80 2.1 CALM 0 0 0 0 1015.2 1014.5 0.0
25/03:00am 19.9 21.4 16.7 82 1.9 W 4 6 2 3 1015.1 1014.4 0.0
25/02:30am 20.4 21.4 16.4 78 2.4 ESE 6 9 3 5 1015.0 1014.3 0.0
25/02:00am 19.9 21.8 15.7 77 2.5 CALM 0 0 0 0 1015.0 1014.3 0.0
25/01:30am 20.5 22.4 15.7 74 2.9 CALM 0 0 0 0 1015.1 1014.4 0.0
25/01:00am 21.7 24.1 17.1 75 2.8 CALM 0 0 0 0 1015.3 1014.6 0.0
25/12:30am 22.3 24.3 17.0 72 3.3 NNE 2 4 1 2 1015.4 1014.7 0.0
25/12:00am 22.4 23.5 16.7 70 3.5 NNE 6 6 3 3 1015.5 1014.8 0.0
 
Date/Time
EST
Temp
°C
App
Temp
°C
Dew
Point
°C
Rel
Hum
%
Delta-T
°C
Wind Press
QNH
hPa
Press
MSL
hPa
Rain since
9am
mm
Dir  Spd
km/h
Gust
km/h
Spd
kts
Gust
kts
24/11:30pm 22.6 23.5 16.2 67 3.9 ENE 6 7 3 4 1015.7 1015.0 0.0
24/11:00pm 23.9 24.1 16.7 64 4.4 E 11 17 6 9 1016.1 1015.4 0.0
24/10:30pm 24.5 24.5 16.2 60 5.1 ENE 11 17 6 9 1016.2 1015.5 0.0
24/10:00pm 25.0 25.6 16.7 60 5.1 NE 9 15 5 8 1016.3 1015.6 0.0
24/09:30pm 25.8 26.1 16.1 55 6.0 ENE 9 15 5 8 1016.3 1015.6 0.0
24/09:00pm 26.6 26.7 15.6 50 6.7 ENE 9 13 5 7 1016.2 1015.5 0.0
24/08:30pm 27.5 26.8 15.5 48 7.4 E 13 19 7 10 1016.1 1015.4 0.0
24/08:00pm 28.1 26.8 15.7 46 7.6 ENE 17 22 9 12 1015.6 1014.9 0.0
24/07:30pm 29.3 27.1 14.3 40 9.1 ENE 19 24 10 13 1014.9 1014.2 0.0
24/07:00pm 30.5 28.9 12.9 34 10.5 E 13 28 7 15 1014.1 1013.5 0.0
24/06:30pm 32.0 29.2 10.1 26 12.6 E 15 17 8 9 1013.4 1012.8 0.0
24/06:00pm 33.0 29.4 9.7 24 13.4 E 19 24 10 13 1013.1 1012.5 0.0
24/05:30pm 33.7 30.0 10.3 24 13.6 E 20 26 11 14 1012.9 1012.3 0.0
24/05:00pm 34.5 30.9 9.7 22 14.3 E 19 28 10 15 1012.8 1012.2 0.0
24/04:30pm 35.3 32.6 10.4 22 14.6 E 15 26 8 14 1012.7 1012.1 0.0
24/04:00pm 35.0 33.2 10.8 23 14.2 E 11 19 6 10 1012.7 1012.1 0.0
24/03:30pm 35.4 32.9 11.1 23 14.4 ENE 15 24 8 13 1012.8 1012.2 0.0
24/03:00pm 34.8 33.1 11.2 24 13.9 ENE 11 20 6 11 1012.9 1012.3 0.0
24/02:30pm 35.1 34.0 12.1 25 13.8 NNE 9 20 5 11 1013.2 1012.6 0.0
24/02:00pm 34.9 34.2 12.0 25 13.7 NW 7 20 4 11 1013.7 1013.1 0.0
24/01:30pm 34.0 32.7 12.4 27 13.0 ENE 11 20 6 11 1014.0 1013.4 0.0
24/01:00pm 33.5 31.8 12.5 28 12.6 E 13 24 7 13 1014.6 1013.9 0.0
24/12:30pm 32.7 32.6 13.4 31 11.7 SW 6 17 3 9 1015.2 1014.5 0.0
24/12:00pm 31.6 31.3 14.3 35 10.6 NNE 9 22 5 12 1015.7 1015.0 0.0
24/11:30am 31.2 31.4 14.8 37 10.1 NNE 7 15 4 8 1016.3 1015.6 0.0
24/11:00am 31.0 30.4 14.6 37 10.0 E 11 19 6 10 1016.9 1016.2 0.0
24/10:30am 30.1 30.9 15.8 42 8.9 WSW 6 11 3 6 1017.3 1016.6 0.0
24/10:00am 28.0 27.6 15.3 46 7.8 E 11 22 6 12 1017.7 1017.0 0.0
24/09:30am 28.3 28.3 16.2 47 7.5 ESE 11 17 6 9 1017.8 1017.1 0.0
24/09:00am 27.6 27.9 16.9 52 6.7 ESE 11 17 6 9 1018.0 1017.3 0.0
24/08:30am 26.3 27.1 16.3 54 6.2 ESE 7 20 4 11 1018.0 1017.3 0.0
24/08:00am 24.8 25.4 16.8 61 4.9 SSE 9 15 5 8 1018.1 1017.4 0.0
24/07:30am 23.6 24.9 17.1 67 4.0 SSW 6 7 3 4 1018.1 1017.4 0.0
24/07:00am 22.2 24.2 16.9 72 3.3 W 2 4 1 2 1017.9 1017.2 0.0
24/06:30am 20.7 21.9 16.9 79 2.3 W 6 7 3 4 1017.6 1016.9 0.0
24/06:00am 19.4 21.0 16.8 85 1.6 WSW 4 6 2 3 1017.2 1016.5 0.0
24/05:30am 19.5 20.7 16.9 85 1.6 W 6 7 3 4 1017.0 1016.3 0.0
24/05:00am 20.0 21.9 16.8 82 1.9 WSW 2 6 1 3 1016.6 1015.9 0.0
24/04:30am 20.3 22.6 16.7 80 2.2 CALM 0 0 0 0 1016.5 1015.8 0.0
24/04:00am 20.2 21.9 16.2 78 2.4 S 2 4 1 2 1016.4 1015.7 0.0
24/03:30am 20.7 22.0 17.1 80 2.2 WSW 6 7 3 4 1016.4 1015.7 0.0
24/03:00am 20.9 22.5 16.9 78 2.4 WSW 4 6 2 3 1016.6 1015.9 0.0
24/02:30am 21.6 23.9 16.8 74 2.9 CALM 0 0 0 0 1016.8 1016.1 0.0
24/02:00am 21.8 24.0 16.5 72 3.2 CALM 0 0 0 0 1017.2 1016.5 0.0
24/01:30am 22.5 23.8 17.2 72 3.3 ESE 6 9 3 5 1017.5 1016.8 0.0
24/01:00am 23.0 24.7 17.2 70 3.6 NNE 4 6 2 3 1017.7 1017.0 0.0
24/12:30am 23.0 24.1 17.2 70 3.6 NE 7 9 4 5 1017.8 1017.1 0.0
24/12:00am 22.9 24.0 17.1 70 3.6 ENE 7 9 4 5 1017.9 1017.2 0.0
 
Date/Time
EST
Temp
°C
App
Temp
°C
Dew
Point
°C
Rel
Hum
%
Delta-T
°C
Wind Press
QNH
hPa
Press
MSL
hPa
Rain since
9am
mm
Dir  Spd
km/h
Gust
km/h
Spd
kts
Gust
kts
23/11:30pm 23.3 23.6 17.1 68 3.8 ENE 11 17 6 9 1018.1 1017.4 0.0
23/11:00pm 23.9 23.9 17.2 66 4.2 ENE 13 22 7 12 1018.1 1017.4 0.0
23/10:30pm 24.4 24.0 17.1 63 4.5 E 15 22 8 12 1018.2 1017.5 0.0
23/10:00pm 24.9 23.6 16.9 61 5.0 ENE 19 26 10 14 1017.8 1017.1 0.0
23/09:30pm 25.4 24.0 17.1 60 5.2 E 20 26 11 14 1017.6 1016.9 0.0
23/09:00pm 26.0 24.5 16.8 57 5.7 E 20 32 11 17 1017.5 1016.8 0.0
23/08:30pm 26.9 25.2 16.2 52 6.6 ESE 20 30 11 16 1017.2 1016.5 0.0
23/08:00pm 27.9 26.0 15.2 46 7.8 E 19 28 10 15 1016.7 1016.0 0.0
23/07:30pm 28.7 26.9 14.5 42 8.6 E 17 24 9 13 1016.2 1015.5 0.0
23/07:00pm 29.6 28.1 14.2 39 9.3 ESE 15 22 8 12 1015.8 1015.1 0.0
23/06:30pm 30.7 28.8 13.0 33 10.6 ESE 15 20 8 11 1015.3 1014.6 0.0
23/06:00pm 31.8 29.2 13.1 32 11.2 E 19 24 10 13 1014.7 1014.0 0.0
23/05:30pm 32.6 30.6 12.8 30 11.9 E 15 24 8 13 1014.5 1013.8 0.0
23/05:00pm 33.7 31.7 12.7 28 12.6 ESE 15 22 8 12 1014.1 1013.5 0.0
23/04:30pm 33.7 31.3 12.7 28 12.6 E 17 26 9 14 1014.1 1013.5 0.0
23/04:00pm 33.6 31.2 12.6 28 12.6 E 17 30 9 16 1014.0 1013.4 0.0
23/03:30pm 33.5 31.8 12.5 28 12.6 NE 13 26 7 14 1014.1 1013.5 0.0
23/03:00pm 33.9 32.3 12.8 28 12.7 ESE 13 26 7 14 1014.5 1013.8 0.0
23/02:30pm 34.1 31.4 13.0 28 12.8 ENE 19 32 10 17 1014.8 1014.1 0.0
23/02:00pm 33.3 30.6 12.9 29 12.3 E 19 32 10 17 1015.2 1014.5 0.0

Other Formats:

Comma delimited format used in spreadsheet applications
http://www.bom.gov.au/fwo/IDQ60801/IDQ60801.95543.axf

JavaScript Object Notation format (JSON) in row-major order
http://www.bom.gov.au/fwo/IDQ60801/IDQ60801.95543.json